Terminal Aerodrome Forecast
Issued by NWS

Home | Current Version | Previous Version | Text Only | Print | Product List | Glossary On
Versions: 1 2 3 4 5 6 7 8 9 10 11 12 13
957
FTUS44 KLUB 071124
TAFCDS
TAF
KCDS 071124Z 0712/0812 36008KT P6SM SKC
     FM071700 01016G24KT P6SM SKC
     FM080000 36011KT P6SM FEW070=

USA.gov is the U.S. government's official web portal to all federal, state and local government web resources and services.